Time;durP1;ratioP1;P1;durP2;ratioP2;P2;SDS_P1;SDS_P2;PMS_P1;PMS_P2;Temp;Humidity;BMP_temperature;BMP_pressure;BME280_temperature;BME280_humidity;BME280_pressure;Samples;Min_cycle;Max_cycle;Signal;HPM_P1;HPM_P2
2023/12/04 00:02:04;;;;;;;4.03;2.08;;;0.20;98.40;;;;;;5090721;28;20028;-76
2023/12/04 00:04:30;;;;;;;4.18;2.13;;;0.30;98.40;;;;;;5092001;28;20104;-77
2023/12/04 00:06:56;;;;;;;5.22;2.25;;;0.20;98.50;;;;;;5090541;28;20704;-75
2023/12/04 00:09:23;;;;;;;5.97;2.90;;;0.20;98.50;;;;;;5089209;28;20221;-75
2023/12/04 00:11:49;;;;;;;4.82;2.88;;;0.20;99.10;;;;;;5093355;27;20945;-76
2023/12/04 00:14:14;;;;;;;4.97;2.03;;;0.10;98.60;;;;;;5089805;28;20043;-75
2023/12/04 00:16:40;;;;;;;5.75;2.53;;;0.10;98.60;;;;;;5090560;28;20374;-75
2023/12/04 00:19:06;;;;;;;4.50;2.30;;;0.10;98.80;;;;;;5097027;28;20484;-75
2023/12/04 00:21:32;;;;;;;3.97;2.30;;;0.00;99.10;;;;;;5095453;28;20088;-75
2023/12/04 00:23:58;;;;;;;5.10;2.50;;;0.00;99.00;;;;;;5094348;28;20032;-75
2023/12/04 00:26:24;;;;;;;4.13;2.33;;;0.10;99.10;;;;;;5094502;28;20035;-75
2023/12/04 00:28:49;;;;;;;4.78;2.38;;;0.00;99.00;;;;;;5093756;28;20038;-75
2023/12/04 00:31:15;;;;;;;6.25;2.30;;;0.00;99.10;;;;;;5094136;28;20116;-75
2023/12/04 00:33:41;;;;;;;4.85;2.17;;;0.00;99.20;;;;;;5095616;28;20031;-76
2023/12/04 00:36:07;;;;;;;5.20;2.40;;;-0.10;99.30;;;;;;5094585;28;20031;-75
2023/12/04 00:38:32;;;;;;;6.72;2.47;;;0.00;99.00;;;;;;5094613;28;20055;-75
2023/12/04 00:40:58;;;;;;;6.57;2.63;;;0.00;99.00;;;;;;5095213;28;20512;-75
2023/12/04 00:43:23;;;;;;;4.57;2.35;;;-0.10;99.20;;;;;;5093880;28;21339;-75
2023/12/04 00:45:49;;;;;;;5.22;2.75;;;-0.10;99.50;;;;;;5094350;28;20485;-76
2023/12/04 00:48:15;;;;;;;4.50;2.05;;;-0.10;99.40;;;;;;5094807;28;20032;-75
2023/12/04 00:50:40;;;;;;;4.32;1.80;;;0.00;99.40;;;;;;5092984;28;20652;-75
2023/12/04 00:53:06;;;;;;;6.25;2.97;;;-0.10;99.30;;;;;;5094570;28;20122;-76
2023/12/04 00:55:32;;;;;;;4.35;2.17;;;0.00;99.00;;;;;;5094940;28;20035;-75
2023/12/04 00:57:57;;;;;;;5.32;2.63;;;0.20;98.70;;;;;;5093921;28;20032;-75
2023/12/04 01:00:23;;;;;;;4.07;2.25;;;0.00;99.00;;;;;;5093347;28;20040;-75
2023/12/04 01:02:49;;;;;;;3.70;2.33;;;0.20;98.70;;;;;;5095229;28;20040;-75
2023/12/04 01:05:14;;;;;;;5.80;3.03;;;-0.10;99.60;;;;;;5093983;28;20032;-75
2023/12/04 01:07:40;;;;;;;5.82;2.10;;;-0.10;99.90;;;;;;5093461;28;20042;-76
2023/12/04 01:10:06;;;;;;;4.88;2.65;;;0.00;99.10;;;;;;5095040;28;20038;-75
2023/12/04 01:12:32;;;;;;;5.50;2.78;;;0.10;98.80;;;;;;5093611;28;20028;-75
2023/12/04 01:14:57;;;;;;;5.72;2.42;;;0.00;99.30;;;;;;5093847;28;20536;-75
2023/12/04 01:17:23;;;;;;;5.40;2.13;;;-0.30;99.90;;;;;;5093944;28;20503;-75
2023/12/04 01:19:49;;;;;;;4.45;2.05;;;-0.20;99.90;;;;;;5093667;28;20601;-75
2023/12/04 01:22:15;;;;;;;4.60;2.30;;;-0.30;99.90;;;;;;5093237;28;20459;-75
2023/12/04 01:24:40;;;;;;;5.85;2.25;;;-0.40;99.90;;;;;;5094609;28;20072;-75
2023/12/04 01:27:06;;;;;;;4.40;2.28;;;-0.70;99.90;;;;;;5094126;28;20039;-75
2023/12/04 01:29:32;;;;;;;3.92;2.40;;;-0.50;99.90;;;;;;5094630;28;20027;-75
2023/12/04 01:31:57;;;;;;;5.38;2.30;;;-0.40;99.90;;;;;;5094755;28;20047;-75
2023/12/04 01:34:23;;;;;;;4.70;2.47;;;-0.40;99.90;;;;;;5093126;28;20058;-75
2023/12/04 01:36:49;;;;;;;4.07;1.95;;;-0.40;99.90;;;;;;5094227;28;20039;-75
2023/12/04 01:39:14;;;;;;;5.47;2.42;;;-0.50;99.90;;;;;;5092824;28;20032;-75
2023/12/04 01:41:40;;;;;;;4.25;2.20;;;-0.60;99.90;;;;;;5071455;28;20404;-75
2023/12/04 01:44:06;;;;;;;5.75;2.28;;;-0.80;99.90;;;;;;5073241;28;20107;-75
2023/12/04 01:46:32;;;;;;;4.90;2.40;;;-0.80;99.90;;;;;;5071816;28;20036;-75
2023/12/04 01:48:58;;;;;;;4.38;1.98;;;-0.80;99.90;;;;;;5070174;28;21514;-75
2023/12/04 01:51:26;;;;;;;5.80;2.38;;;-0.50;99.90;;;;;;5072017;28;20062;-75
2023/12/04 01:53:53;;;;;;;4.35;2.03;;;-0.60;99.90;;;;;;5071585;28;20063;-75
2023/12/04 01:56:20;;;;;;;4.43;2.00;;;-0.60;99.90;;;;;;5071367;28;20649;-75
2023/12/04 01:58:46;;;;;;;4.53;2.30;;;-0.50;99.90;;;;;;5073285;28;20111;-76
2023/12/04 02:01:12;;;;;;;4.50;2.10;;;-0.40;99.90;;;;;;5068888;28;20047;-75
2023/12/04 02:03:37;;;;;;;3.50;1.98;;;-0.50;99.90;;;;;;5075835;28;20032;-75
2023/12/04 02:06:05;;;;;;;3.40;1.73;;;-0.50;99.90;;;;;;5076958;28;20032;-75
2023/12/04 02:08:31;;;;;;;4.68;2.13;;;-0.50;99.90;;;;;;5075474;28;20031;-75
2023/12/04 02:10:56;;;;;;;4.20;1.80;;;-0.60;99.90;;;;;;5075361;28;20040;-75
2023/12/04 02:13:22;;;;;;;6.13;1.80;;;-0.70;99.90;;;;;;5077002;28;20036;-75
2023/12/04 02:15:52;;;;;;;4.35;2.00;;;-0.70;99.90;;;;;;5075181;28;20111;-75
2023/12/04 02:18:18;;;;;;;4.20;2.00;;;-0.50;99.90;;;;;;5074309;28;20916;-75
2023/12/04 02:20:44;;;;;;;2.85;1.48;;;-0.60;99.90;;;;;;5075762;28;20063;-76
2023/12/04 02:23:10;;;;;;;3.25;1.55;;;-0.90;99.90;;;;;;5076257;28;20498;-75
2023/12/04 02:25:36;;;;;;;3.38;1.75;;;-1.00;99.90;;;;;;5074911;28;20028;-75
2023/12/04 02:28:06;;;;;;;3.80;1.73;;;-1.00;99.90;;;;;;5075114;28;20093;-75
2023/12/04 02:30:32;;;;;;;4.00;1.65;;;-1.10;99.90;;;;;;5076034;28;20038;-75
2023/12/04 02:32:59;;;;;;;5.93;1.90;;;-1.10;99.90;;;;;;5071514;28;20028;-75
2023/12/04 02:35:28;;;;;;;2.92;1.60;;;-1.00;99.90;;;;;;5074515;28;20031;-75
2023/12/04 02:37:55;;;;;;;3.78;1.58;;;-1.00;99.90;;;;;;5075344;28;20542;-75
2023/12/04 02:40:21;;;;;;;2.33;1.40;;;-1.00;99.90;;;;;;5084106;28;20100;-75
2023/12/04 02:42:47;;;;;;;4.78;1.50;;;-1.00;99.90;;;;;;5095879;28;20509;-75
2023/12/04 02:45:13;;;;;;;2.97;1.27;;;-1.00;99.90;;;;;;5096568;28;20031;-75
2023/12/04 02:47:38;;;;;;;3.55;1.50;;;-1.10;99.90;;;;;;5096801;28;20043;-75
2023/12/04 02:50:04;;;;;;;4.80;2.53;;;-1.10;99.90;;;;;;5096132;27;20114;-75
2023/12/04 02:52:30;;;;;;;3.08;1.77;;;-1.00;99.90;;;;;;5097121;28;20071;-75
2023/12/04 02:54:56;;;;;;;4.05;1.88;;;-1.20;99.90;;;;;;5095242;28;20666;-75
2023/12/04 02:57:21;;;;;;;4.50;2.10;;;-1.10;99.90;;;;;;5095423;28;21968;-75
2023/12/04 02:59:48;;;;;;;3.13;1.67;;;-1.20;99.90;;;;;;5096517;28;20044;-75
2023/12/04 03:02:14;;;;;;;3.88;2.20;;;-1.30;99.90;;;;;;5096380;28;20883;-75
2023/12/04 03:04:39;;;;;;;4.63;1.92;;;-1.20;99.90;;;;;;5095110;28;20038;-75
2023/12/04 03:07:05;;;;;;;4.22;1.80;;;-1.30;99.90;;;;;;5097682;28;20416;-75
2023/12/04 03:09:30;;;;;;;3.78;1.70;;;-1.40;99.90;;;;;;5095731;28;23824;-75
2023/12/04 03:11:56;;;;;;;3.10;1.65;;;-1.40;99.90;;;;;;5096193;28;20038;-75
2023/12/04 03:14:22;;;;;;;3.72;1.88;;;-1.50;99.90;;;;;;5096646;28;20031;-75
2023/12/04 03:16:47;;;;;;;4.30;1.80;;;-1.50;99.90;;;;;;5095081;28;20099;-75
2023/12/04 03:19:13;;;;;;;6.38;1.98;;;-1.40;99.90;;;;;;5096056;28;20027;-75
2023/12/04 03:21:39;;;;;;;4.07;1.57;;;-1.40;99.90;;;;;;5097233;28;20036;-75
2023/12/04 03:24:04;;;;;;;4.50;2.30;;;-1.50;99.90;;;;;;5095607;28;20035;-75
2023/12/04 03:26:30;;;;;;;3.95;1.55;;;-1.60;99.90;;;;;;5094438;28;20114;-75
2023/12/04 03:28:56;;;;;;;4.25;1.80;;;-1.40;99.90;;;;;;5095566;28;20442;-75
2023/12/04 03:31:23;;;;;;;3.20;1.77;;;-1.30;99.90;;;;;;5092627;28;20609;-75
2023/12/04 03:33:48;;;;;;;4.28;1.50;;;-1.40;99.90;;;;;;5094428;28;20044;-75
2023/12/04 03:36:14;;;;;;;4.00;1.65;;;-1.40;99.90;;;;;;5095898;28;20111;-75
2023/12/04 03:38:40;;;;;;;5.00;1.98;;;-1.30;99.90;;;;;;5095485;28;20476;-75
2023/12/04 03:41:12;;;;;;;6.20;2.10;;;-1.30;99.90;;;;;;5095461;28;20051;-75
2023/12/04 03:43:38;;;;;;;5.35;2.20;;;-1.30;99.90;;;;;;5095768;28;20046;-76
2023/12/04 03:46:04;;;;;;;3.80;1.80;;;-1.40;99.90;;;;;;5096147;28;20031;-75
2023/12/04 03:48:30;;;;;;;3.65;1.60;;;-1.30;99.90;;;;;;5095264;28;20038;-75
2023/12/04 03:50:55;;;;;;;5.93;1.90;;;-1.20;99.90;;;;;;5094633;28;20028;-75
2023/12/04 03:53:21;;;;;;;5.15;2.05;;;-1.10;99.90;;;;;;5096271;28;20035;-75
2023/12/04 03:55:47;;;;;;;3.75;1.80;;;-1.30;99.90;;;;;;5094469;28;20047;-75
2023/12/04 03:58:12;;;;;;;4.75;2.20;;;-1.30;99.90;;;;;;5094501;28;20423;-75
2023/12/04 04:00:41;;;;;;;5.40;2.00;;;-1.40;99.90;;;;;;5095832;28;20043;-75
2023/12/04 04:03:07;;;;;;;3.05;2.03;;;-1.30;99.90;;;;;;5091811;28;20043;-76
2023/12/04 04:05:34;;;;;;;3.00;1.60;;;-1.30;99.90;;;;;;5089491;28;20019;-75
2023/12/04 04:08:00;;;;;;;4.38;1.38;;;-1.10;99.90;;;;;;5091816;28;20028;-75
2023/12/04 04:10:25;;;;;;;3.80;1.70;;;-1.30;99.90;;;;;;5090531;28;20531;-75
2023/12/04 04:12:51;;;;;;;4.13;1.40;;;-1.40;99.90;;;;;;5090719;28;20038;-76
2023/12/04 04:15:17;;;;;;;3.78;1.60;;;-1.60;99.90;;;;;;5092941;28;20053;-75
2023/12/04 04:17:42;;;;;;;3.45;1.52;;;-1.60;99.90;;;;;;5087294;28;20690;-78
2023/12/04 04:20:08;;;;;;;4.00;1.88;;;-1.50;99.90;;;;;;5087474;28;20078;-77
2023/12/04 04:22:37;;;;;;;3.50;1.70;;;-1.40;99.90;;;;;;5090212;28;20040;-76
2023/12/04 04:25:08;;;;;;;4.05;1.58;;;-1.40;99.90;;;;;;5090153;28;20035;-76
2023/12/04 04:27:34;;;;;;;3.72;1.77;;;-1.40;99.90;;;;;;5090432;28;20116;-76
2023/12/04 04:30:01;;;;;;;5.43;1.80;;;-1.30;99.90;;;;;;5088591;28;20485;-77
2023/12/04 04:32:26;;;;;;;3.75;1.80;;;-1.20;99.90;;;;;;5089367;28;20070;-74
2023/12/04 04:34:52;;;;;;;4.05;1.95;;;-1.30;99.90;;;;;;5088092;28;20122;-76
2023/12/04 04:37:19;;;;;;;5.70;1.70;;;-1.40;99.90;;;;;;5090829;28;20614;-75
2023/12/04 04:39:44;;;;;;;7.90;2.13;;;-1.30;99.90;;;;;;5092295;28;20071;-75
2023/12/04 04:42:10;;;;;;;4.00;1.85;;;-1.30;99.90;;;;;;5090704;28;20127;-76
2023/12/04 04:44:36;;;;;;;4.13;1.95;;;-1.20;99.90;;;;;;5090388;28;20129;-76
2023/12/04 04:47:02;;;;;;;3.05;1.70;;;-1.20;99.90;;;;;;5092186;28;20035;-76
2023/12/04 04:49:27;;;;;;;4.78;2.10;;;-1.30;99.90;;;;;;5090284;28;20781;-76
2023/12/04 04:51:53;;;;;;;3.72;1.77;;;-1.30;99.90;;;;;;5089560;28;20812;-76
2023/12/04 04:54:19;;;;;;;4.68;2.10;;;-1.20;99.90;;;;;;5090940;28;20704;-78
2023/12/04 04:56:45;;;;;;;3.60;1.60;;;-1.20;99.90;;;;;;5090513;28;20088;-75
2023/12/04 04:59:10;;;;;;;3.30;1.83;;;-1.20;99.90;;;;;;5088836;28;20035;-75
2023/12/04 05:01:36;;;;;;;5.85;2.10;;;-1.20;99.90;;;;;;5089174;28;20640;-75
2023/12/04 05:04:02;;;;;;;3.83;1.73;;;-1.10;99.90;;;;;;5087174;28;20023;-76
2023/12/04 05:06:29;;;;;;;4.32;1.88;;;-1.10;99.90;;;;;;5086943;28;20038;-75
2023/12/04 05:08:55;;;;;;;4.18;2.17;;;-1.00;99.90;;;;;;5088609;28;20020;-75
2023/12/04 05:11:21;;;;;;;4.85;2.55;;;-0.90;99.90;;;;;;5087615;28;20067;-75
2023/12/04 05:13:46;;;;;;;4.28;1.92;;;-1.00;99.90;;;;;;5087225;28;20669;-76
2023/12/04 05:16:12;;;;;;;5.45;1.73;;;-0.90;99.90;;;;;;5086268;28;20056;-75
2023/12/04 05:18:39;;;;;;;4.10;1.92;;;-1.00;99.90;;;;;;5086297;28;20058;-78
2023/12/04 05:21:09;;;;;;;3.60;1.77;;;-1.00;99.90;;;;;;5087219;28;20124;-75
2023/12/04 05:23:35;;;;;;;4.05;1.67;;;-0.90;99.90;;;;;;5088500;28;20039;-76
2023/12/04 05:26:01;;;;;;;4.10;2.00;;;-1.10;99.90;;;;;;5087911;28;20058;-76
2023/12/04 05:28:27;;;;;;;7.10;2.45;;;-1.00;99.90;;;;;;5087160;28;20024;-77
2023/12/04 05:30:52;;;;;;;4.28;2.20;;;-1.10;99.90;;;;;;5088213;28;20044;-76
2023/12/04 05:33:18;;;;;;;5.60;2.42;;;-1.20;99.90;;;;;;5084479;28;20047;-76
2023/12/04 05:35:44;;;;;;;4.80;1.92;;;-1.30;99.90;;;;;;5086306;28;20031;-75
2023/12/04 05:38:09;;;;;;;6.43;2.55;;;-1.30;99.90;;;;;;5087062;28;20044;-75
2023/12/04 05:40:35;;;;;;;4.40;2.37;;;-1.20;99.90;;;;;;5087816;28;20047;-76
2023/12/04 05:43:01;;;;;;;4.40;2.13;;;-1.40;99.90;;;;;;5086993;28;20040;-75
2023/12/04 05:45:26;;;;;;;4.35;1.77;;;-1.30;99.90;;;;;;5087857;28;20034;-76
2023/12/04 05:47:52;;;;;;;7.32;2.30;;;-1.20;99.90;;;;;;5086128;28;20057;-77
2023/12/04 05:50:18;;;;;;;5.25;1.77;;;-1.20;99.90;;;;;;5085913;28;20114;-76
2023/12/04 05:52:44;;;;;;;4.00;1.73;;;-1.10;99.90;;;;;;5087469;28;20032;-75
2023/12/04 05:55:10;;;;;;;4.40;1.70;;;-1.00;99.90;;;;;;5086340;28;20032;-75
2023/12/04 05:57:38;;;;;;;6.27;1.90;;;-1.00;99.90;;;;;;5087573;28;20478;-76
2023/12/04 06:00:05;;;;;;;3.10;1.87;;;-1.00;99.90;;;;;;5088238;28;20040;-77
2023/12/04 06:02:32;;;;;;;4.15;2.13;;;-1.00;99.90;;;;;;5086344;28;20448;-75
2023/12/04 06:04:57;;;;;;;5.10;2.17;;;-1.10;99.90;;;;;;5087663;28;20489;-76
2023/12/04 06:07:23;;;;;;;3.53;1.80;;;-1.30;99.90;;;;;;5086982;28;20050;-76
2023/12/04 06:09:49;;;;;;;4.10;2.08;;;-1.20;99.90;;;;;;5086607;28;20118;-76
2023/12/04 06:12:14;;;;;;;7.18;1.95;;;-1.10;99.90;;;;;;5087034;28;20124;-76
2023/12/04 06:14:40;;;;;;;4.07;1.90;;;-1.20;99.90;;;;;;5086785;28;20036;-75
2023/12/04 06:17:06;;;;;;;4.05;2.10;;;-1.30;99.90;;;;;;5086568;28;20032;-78
2023/12/04 06:19:32;;;;;;;7.43;2.03;;;-1.20;99.90;;;;;;5088519;28;20035;-75
2023/12/04 06:21:58;;;;;;;5.63;2.85;;;-1.10;99.90;;;;;;5088329;28;20293;-76
2023/12/04 06:24:24;;;;;;;6.28;2.50;;;-1.10;99.90;;;;;;5087141;28;20028;-76
2023/12/04 06:26:51;;;;;;;5.18;2.65;;;-1.20;99.90;;;;;;5085786;28;20548;-76
2023/12/04 06:29:17;;;;;;;4.40;2.30;;;-1.10;99.90;;;;;;5087916;28;20415;-75
2023/12/04 06:31:43;;;;;;;4.25;2.00;;;-1.10;99.90;;;;;;5090522;28;20150;-76
2023/12/04 06:34:09;;;;;;;4.90;2.27;;;-1.10;99.90;;;;;;5087026;28;20079;-76
2023/12/04 06:36:40;;;;;;;3.53;2.07;;;-1.10;99.90;;;;;;5087125;28;21835;-75
2023/12/04 06:39:11;;;;;;;5.70;2.10;;;-1.00;99.90;;;;;;5089460;28;20133;-75
2023/12/04 06:41:38;;;;;;;4.30;1.75;;;-1.20;99.90;;;;;;5088524;28;20056;-75
2023/12/04 06:44:04;;;;;;;5.13;1.98;;;-1.20;99.90;;;;;;5083572;28;20039;-76
2023/12/04 06:46:31;;;;;;;4.85;2.15;;;-1.20;99.90;;;;;;5086514;28;20032;-76
2023/12/04 06:49:00;;;;;;;7.25;1.83;;;-1.10;99.90;;;;;;5088484;28;20059;-76
2023/12/04 06:51:26;;;;;;;4.15;1.80;;;-1.10;99.90;;;;;;5089039;28;20036;-76
2023/12/04 06:53:52;;;;;;;12.65;2.70;;;-1.00;99.90;;;;;;5088691;28;20046;-75
2023/12/04 06:56:17;;;;;;;4.15;2.15;;;-0.90;99.90;;;;;;5089289;28;20630;-75
2023/12/04 06:58:43;;;;;;;6.33;2.23;;;-1.00;99.90;;;;;;5088756;28;20128;-77
2023/12/04 07:01:08;;;;;;;4.03;2.00;;;-0.90;99.90;;;;;;5090023;28;20039;-76
2023/12/04 07:03:34;;;;;;;5.43;2.27;;;-0.90;99.90;;;;;;5086936;28;20071;-76
2023/12/04 07:06:00;;;;;;;5.97;2.15;;;-0.90;99.90;;;;;;5088821;28;20031;-76
2023/12/04 07:08:25;;;;;;;4.25;1.60;;;-0.70;99.90;;;;;;5090481;28;20164;-75
2023/12/04 07:10:51;;;;;;;4.43;2.15;;;-0.60;99.90;;;;;;5087637;28;20036;-76
2023/12/04 07:13:17;;;;;;;4.25;2.22;;;-0.70;99.90;;;;;;5085643;28;20021;-75
2023/12/04 07:15:42;;;;;;;4.85;2.10;;;-0.70;99.90;;;;;;5089344;28;20477;-74
2023/12/04 07:18:08;;;;;;;4.07;1.95;;;-0.60;99.90;;;;;;5088052;28;20076;-75
2023/12/04 07:20:34;;;;;;;5.00;2.42;;;-0.70;99.90;;;;;;5087391;28;20465;-75
2023/12/04 07:23:00;;;;;;;6.43;2.10;;;-0.70;99.90;;;;;;5089933;28;20110;-75
2023/12/04 07:25:25;;;;;;;4.80;2.42;;;-0.80;99.90;;;;;;5087457;28;20039;-75
2023/12/04 07:27:51;;;;;;;4.30;2.10;;;-0.60;99.90;;;;;;5087789;28;20138;-75
2023/12/04 07:30:17;;;;;;;3.25;1.90;;;-0.50;99.90;;;;;;5089023;28;20357;-75
2023/12/04 07:32:42;;;;;;;4.07;1.90;;;-0.50;99.90;;;;;;5088187;28;21009;-75
2023/12/04 07:35:08;;;;;;;4.57;2.15;;;-0.50;99.90;;;;;;5089442;28;20776;-76
2023/12/04 07:37:34;;;;;;;4.55;1.88;;;-0.60;99.90;;;;;;5090524;28;20404;-76
2023/12/04 07:40:00;;;;;;;3.72;1.55;;;-0.60;99.90;;;;;;5088239;28;20135;-75
2023/12/04 07:42:25;;;;;;;4.28;2.00;;;-0.60;99.90;;;;;;5088906;27;20036;-76
2023/12/04 07:44:51;;;;;;;5.22;1.80;;;-0.50;99.90;;;;;;5090105;28;20711;-74
2023/12/04 07:47:17;;;;;;;4.40;2.20;;;-0.40;99.90;;;;;;5070964;28;20877;-75
2023/12/04 07:49:45;;;;;;;4.72;2.25;;;-0.40;99.90;;;;;;5089257;28;20035;-75
2023/12/04 07:52:11;;;;;;;4.35;2.40;;;-0.30;99.90;;;;;;5086844;28;20035;-76
2023/12/04 07:54:37;;;;;;;3.95;2.13;;;-0.50;99.90;;;;;;5087819;28;20081;-76
2023/12/04 07:57:03;;;;;;;7.30;2.67;;;-0.50;99.90;;;;;;5088228;28;20047;-75
2023/12/04 07:59:29;;;;;;;4.18;2.10;;;-0.60;99.90;;;;;;5089014;28;20035;-75
2023/12/04 08:01:55;;;;;;;3.42;1.73;;;-0.50;99.90;;;;;;5088403;28;20040;-76
2023/12/04 08:04:20;;;;;;;4.32;1.90;;;-0.40;99.90;;;;;;5086335;28;20032;-76
2023/12/04 08:06:46;;;;;;;5.32;2.53;;;-0.20;99.90;;;;;;5089616;28;20031;-76
2023/12/04 08:09:12;;;;;;;4.22;2.17;;;-0.20;99.90;;;;;;5088155;28;20059;-76
2023/12/04 08:11:37;;;;;;;8.57;3.10;;;-0.10;99.90;;;;;;5089916;28;20034;-76
2023/12/04 08:14:04;;;;;;;5.97;2.65;;;-0.20;99.90;;;;;;5087812;28;20135;-76
2023/12/04 08:16:29;;;;;;;5.43;2.88;;;-0.40;99.90;;;;;;5085140;28;20126;-76
2023/12/04 08:18:55;;;;;;;7.10;2.72;;;-0.40;99.90;;;;;;5088844;28;20034;-77
2023/12/04 08:21:21;;;;;;;7.72;3.78;;;-0.40;99.90;;;;;;5087186;28;20043;-76
2023/12/04 08:23:47;;;;;;;6.50;3.10;;;-0.40;99.90;;;;;;5087573;28;20034;-77
2023/12/04 08:26:13;;;;;;;4.95;2.83;;;-0.40;99.90;;;;;;5088517;28;20677;-77
2023/12/04 08:28:41;;;;;;;5.53;3.10;;;-0.40;99.90;;;;;;5085525;28;20032;-76
2023/12/04 08:31:09;;;;;;;7.45;2.75;;;-0.30;99.90;;;;;;5082846;28;20039;-76
2023/12/04 08:33:36;;;;;;;5.25;2.50;;;-0.10;99.90;;;;;;5086419;28;20481;-76
2023/12/04 08:36:01;;;;;;;6.15;2.92;;;-0.10;99.90;;;;;;5087937;28;20690;-76
2023/12/04 08:38:27;;;;;;;5.53;2.60;;;0.00;99.90;;;;;;5083502;28;20763;-76
2023/12/04 08:40:53;;;;;;;5.43;2.53;;;0.10;99.90;;;;;;5086024;28;20089;-76
2023/12/04 08:43:19;;;;;;;6.80;3.13;;;0.10;99.90;;;;;;5087309;28;20065;-77
2023/12/04 08:45:48;;;;;;;11.40;3.10;;;0.20;99.90;;;;;;5084989;28;20040;-76
2023/12/04 08:48:13;;;;;;;6.97;3.65;;;0.00;99.90;;;;;;5086029;28;20031;-76
2023/12/04 08:50:39;;;;;;;7.53;3.28;;;0.00;99.90;;;;;;5087665;28;20667;-77
2023/12/04 08:53:05;;;;;;;5.97;3.22;;;0.00;99.90;;;;;;5086763;28;20027;-76
2023/12/04 08:55:31;;;;;;;7.78;2.95;;;0.10;99.90;;;;;;5085666;28;20038;-76
2023/12/04 08:57:57;;;;;;;6.00;3.50;;;0.20;99.90;;;;;;5088725;28;20480;-76
2023/12/04 09:00:22;;;;;;;8.25;3.88;;;0.30;99.90;;;;;;5087546;28;20703;-76
2023/12/04 09:02:48;;;;;;;7.35;3.45;;;0.30;99.90;;;;;;5084103;28;20112;-76
2023/12/04 09:05:14;;;;;;;5.75;2.90;;;0.40;99.90;;;;;;5080133;28;20032;-78
2023/12/04 09:07:41;;;;;;;6.85;3.13;;;0.40;99.90;;;;;;5085105;28;20377;-77
2023/12/04 09:10:07;;;;;;;5.88;3.17;;;0.30;99.90;;;;;;5085902;28;20065;-77
2023/12/04 09:12:36;;;;;;;9.15;4.20;;;0.20;99.90;;;;;;5085187;28;20059;-77
2023/12/04 09:15:05;;;;;;;7.22;3.97;;;0.10;99.90;;;;;;5085036;28;20039;-77
2023/12/04 09:17:31;;;;;;;7.30;3.42;;;0.20;99.90;;;;;;5086642;28;20521;-77
2023/12/04 09:19:57;;;;;;;8.32;5.07;;;0.20;99.90;;;;;;5084466;28;20041;-77
2023/12/04 09:22:23;;;;;;;7.28;3.70;;;0.20;99.90;;;;;;5086101;28;20043;-77
2023/12/04 09:24:48;;;;;;;8.13;4.35;;;0.30;99.90;;;;;;5087435;28;20096;-78
2023/12/04 09:27:14;;;;;;;10.05;4.20;;;0.40;99.90;;;;;;5086249;28;20095;-77
2023/12/04 09:29:41;;;;;;;8.05;3.72;;;0.30;99.90;;;;;;5084656;28;20227;-77
2023/12/04 09:32:07;;;;;;;6.85;3.88;;;0.30;99.90;;;;;;5083996;28;20063;-77
2023/12/04 09:34:32;;;;;;;7.47;3.63;;;0.30;99.90;;;;;;5081307;28;20125;-77
2023/12/04 09:36:58;;;;;;;5.60;3.42;;;0.40;99.90;;;;;;5084537;28;21230;-77
2023/12/04 09:39:24;;;;;;;5.78;3.17;;;0.50;99.90;;;;;;5087364;28;20048;-77
2023/12/04 09:41:51;;;;;;;8.75;5.90;;;0.70;99.90;;;;;;5085175;28;20043;-77
2023/12/04 09:44:17;;;;;;;8.32;4.90;;;0.80;99.90;;;;;;5085157;28;20032;-77
2023/12/04 09:46:43;;;;;;;8.57;3.47;;;0.80;99.90;;;;;;5085621;28;20712;-77
2023/12/04 09:49:10;;;;;;;6.55;3.08;;;0.70;99.90;;;;;;5085216;28;20032;-77
2023/12/04 09:51:37;;;;;;;7.47;3.78;;;0.70;99.90;;;;;;5085335;28;20043;-77
2023/12/04 09:54:04;;;;;;;9.25;4.78;;;0.70;99.90;;;;;;5086299;28;20494;-77
2023/12/04 09:56:31;;;;;;;20.48;11.90;;;1.00;99.90;;;;;;5086158;28;20036;-76
2023/12/04 09:59:01;;;;;;;13.60;8.82;;;1.00;99.90;;;;;;5085213;28;20035;-77
2023/12/04 10:01:30;;;;;;;12.10;6.50;;;1.10;99.90;;;;;;5086860;28;20052;-76
2023/12/04 10:03:58;;;;;;;16.83;8.50;;;1.30;99.90;;;;;;5086911;28;20501;-76
2023/12/04 10:06:28;;;;;;;14.05;9.20;;;1.40;99.90;;;;;;5086970;28;20042;-76
2023/12/04 10:08:58;;;;;;;7.88;4.10;;;1.30;99.90;;;;;;5084726;28;20066;-76
2023/12/04 10:11:24;;;;;;;6.65;3.70;;;1.20;99.90;;;;;;5080960;28;20024;-77
2023/12/04 10:13:51;;;;;;;6.13;3.00;;;0.90;99.90;;;;;;5079459;28;20984;-76
2023/12/04 10:16:35;;;;;;;6.32;3.58;;;0.80;99.90;;;;;;5079841;28;20035;-76
2023/12/04 10:19:27;;;;;;;7.55;3.25;;;0.90;99.90;;;;;;5078505;28;20082;-76
2023/12/04 10:21:55;;;;;;;6.13;2.58;;;0.80;99.90;;;;;;5084910;28;20058;-76
2023/12/04 10:24:35;;;;;;;6.30;2.90;;;0.80;99.90;;;;;;5088644;28;20031;-76
2023/12/04 10:27:04;;;;;;;6.65;2.47;;;0.80;99.90;;;;;;5089761;28;20061;-77
2023/12/04 10:29:44;;;;;;;4.65;2.45;;;0.70;99.90;;;;;;5079798;28;20040;-76
2023/12/04 10:32:10;;;;;;;6.85;2.85;;;0.80;99.90;;;;;;5087966;28;20032;-77
2023/12/04 10:34:36;;;;;;;8.18;2.60;;;0.80;99.90;;;;;;5088406;28;20034;-76
2023/12/04 10:37:04;;;;;;;6.25;2.50;;;0.90;99.90;;;;;;5088255;28;20035;-76
2023/12/04 10:39:31;;;;;;;6.40;2.20;;;0.90;99.90;;;;;;5087708;28;21004;-76
2023/12/04 10:42:03;;;;;;;5.47;2.63;;;0.90;99.90;;;;;;5088470;28;20087;-76
2023/12/04 10:44:32;;;;;;;7.10;2.83;;;0.90;99.90;;;;;;5090540;28;20054;-76
2023/12/04 10:47:01;;;;;;;5.70;2.55;;;1.00;99.90;;;;;;5089245;28;20024;-77
2023/12/04 10:49:28;;;;;;;5.90;3.25;;;1.00;99.70;;;;;;5088372;27;20038;-76
2023/12/04 10:52:01;;;;;;;5.72;2.85;;;0.90;99.70;;;;;;5083648;28;20031;-77
2023/12/04 10:54:27;;;;;;;5.97;2.88;;;0.90;99.90;;;;;;5088640;28;20039;-76
2023/12/04 10:56:58;;;;;;;5.70;3.15;;;1.00;99.90;;;;;;5089162;28;20027;-77
2023/12/04 10:59:28;;;;;;;7.60;2.80;;;1.00;99.90;;;;;;5088217;28;20027;-76
2023/12/04 11:01:55;;;;;;;6.75;2.55;;;1.10;99.90;;;;;;5089680;28;20440;-76
2023/12/04 11:04:25;;;;;;;6.18;3.40;;;1.30;99.90;;;;;;5088867;27;20035;-76
2023/12/04 11:06:54;;;;;;;6.95;3.63;;;1.30;99.90;;;;;;5087512;28;20043;-77
2023/12/04 11:09:21;;;;;;;6.25;3.92;;;1.20;99.80;;;;;;5087093;27;20518;-77
2023/12/04 11:11:53;;;;;;;9.13;4.40;;;1.20;99.80;;;;;;5089204;28;20475;-77
2023/12/04 11:14:22;;;;;;;11.48;3.88;;;1.20;99.90;;;;;;5086525;28;20040;-77
2023/12/04 11:16:57;;;;;;;6.68;3.70;;;1.40;99.90;;;;;;5089001;28;20032;-80
2023/12/04 11:19:55;;;;;;;6.55;3.15;;;1.50;99.90;;;;;;5089526;28;20131;-79
2023/12/04 11:22:22;;;;;;;6.53;3.45;;;1.70;99.90;;;;;;5088593;28;20046;-77
2023/12/04 11:24:48;;;;;;;8.05;3.08;;;1.60;99.70;;;;;;5089086;27;20124;-78
2023/12/04 11:27:18;;;;;;;6.45;3.15;;;1.70;99.70;;;;;;5089143;28;20043;-78
2023/12/04 11:29:46;;;;;;;10.10;3.53;;;1.80;99.90;;;;;;5087136;28;20036;-77
2023/12/04 11:32:16;;;;;;;6.95;3.05;;;1.70;99.90;;;;;;5085998;28;21389;-76
2023/12/04 11:34:55;;;;;;;5.90;3.00;;;1.70;99.80;;;;;;5088448;28;20023;-77
2023/12/04 11:37:23;;;;;;;9.65;3.33;;;1.70;99.90;;;;;;5087158;28;20028;-77
2023/12/04 11:39:50;;;;;;;6.25;3.33;;;1.80;99.80;;;;;;5088221;28;20145;-77
2023/12/04 11:42:34;;;;;;;7.47;3.58;;;1.80;99.40;;;;;;5088580;28;20990;-80
2023/12/04 11:44:59;;;;;;;5.07;3.33;;;1.70;99.30;;;;;;5091404;28;20035;-79
2023/12/04 11:47:27;;;;;;;7.30;3.78;;;1.70;99.90;;;;;;5087240;28;20042;-79
2023/12/04 11:49:53;;;;;;;5.43;2.75;;;1.70;99.90;;;;;;5087669;28;20779;-79
2023/12/04 11:52:33;;;;;;;6.38;3.53;;;1.70;98.90;;;;;;5090967;28;20049;-79
2023/12/04 11:55:05;;;;;;;7.63;3.78;;;1.70;99.70;;;;;;5089756;28;20067;-80
2023/12/04 11:57:37;;;;;;;8.40;3.53;;;1.90;99.70;;;;;;5090084;28;20852;-80
2023/12/04 12:00:22;;;;;;;7.63;3.67;;;1.80;99.60;;;;;;5089786;28;20158;-79
2023/12/04 12:03:01;;;;;;;;;;;1.80;99.50;;;;;;5092576;28;20043;-80
2023/12/04 12:05:27;;;;;;;6.70;3.47;;;1.90;99.90;;;;;;5091539;28;19934;-84
2023/12/04 12:07:54;;;;;;;7.05;3.45;;;2.10;99.80;;;;;;5093772;28;20145;-79
2023/12/04 12:10:20;;;;;;;6.05;3.65;;;2.30;99.30;;;;;;5091621;28;20050;-79
2023/12/04 12:12:47;;;;;;;6.45;3.75;;;2.20;98.90;;;;;;5090740;28;20473;-80
2023/12/04 12:15:13;;;;;;;6.00;3.03;;;2.00;99.10;;;;;;5093060;28;20689;-80
2023/12/04 12:17:40;;;;;;;8.50;2.85;;;1.80;99.20;;;;;;5092145;28;20474;-79
2023/12/04 12:20:11;;;;;;;5.93;2.75;;;1.60;99.10;;;;;;5089770;28;20131;-78
2023/12/04 12:22:37;;;;;;;3.97;2.17;;;1.70;99.40;;;;;;5091089;28;20885;-78
2023/12/04 12:25:08;;;;;;;5.28;2.70;;;1.80;99.10;;;;;;5092569;28;20029;-80
2023/12/04 12:27:34;;;;;;;5.47;2.95;;;1.70;98.30;;;;;;5094375;28;20621;-86
2023/12/04 12:30:00;;;;;;;7.22;3.00;;;1.70;98.70;;;;;;5091085;28;20043;-80
2023/12/04 12:32:26;;;;;;;4.90;2.60;;;1.70;98.60;;;;;;5089471;28;20035;-80
2023/12/04 12:34:55;;;;;;;6.13;2.90;;;1.80;98.60;;;;;;5089487;28;20096;-79
2023/12/04 12:37:21;;;;;;;6.32;2.92;;;2.00;99.20;;;;;;5089056;28;20031;-78
2023/12/04 12:39:47;;;;;;;4.80;2.50;;;2.10;98.30;;;;;;5091154;27;20464;-79
2023/12/04 12:42:26;;;;;;;5.45;2.50;;;2.00;98.10;;;;;;5089416;28;20028;-79
2023/12/04 12:45:00;;;;;;;4.30;2.22;;;1.90;98.00;;;;;;5088849;28;20167;-83
2023/12/04 12:47:25;;;;;;;4.57;2.13;;;1.80;97.90;;;;;;5089995;28;20038;-78
2023/12/04 12:49:52;;;;;;;6.22;2.63;;;1.90;98.10;;;;;;5091055;28;20036;-78